sensor_id;sensor_type;location;lat;lon;timestamp;pressure;altitude;pressure_sealevel;temperature;humidity
43281;BME280;36240;49.416;8.690;2022-07-03T00:00:42;100559.11;;;27.12;44.00
43281;BME280;36240;49.416;8.690;2022-07-03T00:03:09;100558.38;;;27.09;43.89
43281;BME280;36240;49.416;8.690;2022-07-03T00:05:36;100556.90;;;27.05;43.85
43281;BME280;36240;49.416;8.690;2022-07-03T00:08:04;100552.68;;;27.04;43.75
43281;BME280;36240;49.416;8.690;2022-07-03T00:10:31;100556.51;;;27.02;43.77
43281;BME280;36240;49.416;8.690;2022-07-03T00:12:59;100554.89;;;27.01;43.85
43281;BME280;36240;49.416;8.690;2022-07-03T00:15:26;100553.50;;;27.25;43.83
43281;BME280;36240;49.416;8.690;2022-07-03T00:17:52;100550.94;;;27.25;43.79
43281;BME280;36240;49.416;8.690;2022-07-03T00:20:19;100556.43;;;27.23;43.75
43281;BME280;36240;49.416;8.690;2022-07-03T00:22:47;100559.05;;;27.24;43.69
43281;BME280;36240;49.416;8.690;2022-07-03T00:25:17;100556.22;;;26.98;43.71
43281;BME280;36240;49.416;8.690;2022-07-03T00:27:48;100554.20;;;27.15;43.77
43281;BME280;36240;49.416;8.690;2022-07-03T00:30:16;100554.73;;;27.13;43.88
43281;BME280;36240;49.416;8.690;2022-07-03T00:32:44;100555.78;;;26.91;43.88
43281;BME280;36240;49.416;8.690;2022-07-03T00:35:16;100555.46;;;26.88;43.78
43281;BME280;36240;49.416;8.690;2022-07-03T00:37:43;100551.60;;;27.12;43.79
43281;BME280;36240;49.416;8.690;2022-07-03T00:40:12;100548.87;;;26.87;43.81
43281;BME280;36240;49.416;8.690;2022-07-03T00:42:39;100554.56;;;26.87;43.84
43281;BME280;36240;49.416;8.690;2022-07-03T00:45:07;100555.62;;;27.07;43.87
43281;BME280;36240;49.416;8.690;2022-07-03T00:47:36;100556.51;;;27.06;43.82
43281;BME280;36240;49.416;8.690;2022-07-03T00:50:07;100555.48;;;27.03;43.81
43281;BME280;36240;49.416;8.690;2022-07-03T00:52:36;100557.87;;;26.79;43.82
43281;BME280;36240;49.416;8.690;2022-07-03T00:55:08;100554.00;;;27.02;43.85
43281;BME280;36240;49.416;8.690;2022-07-03T00:57:44;100555.55;;;27.00;44.23
43281;BME280;36240;49.416;8.690;2022-07-03T01:00:12;100558.00;;;26.97;43.75
43281;BME280;36240;49.416;8.690;2022-07-03T01:02:46;100555.22;;;27.02;44.05
43281;BME280;36240;49.416;8.690;2022-07-03T01:05:23;100555.26;;;27.04;43.82
43281;BME280;36240;49.416;8.690;2022-07-03T01:08:03;100550.92;;;26.99;43.78
43281;BME280;36240;49.416;8.690;2022-07-03T01:10:40;100547.23;;;26.97;43.79
43281;BME280;36240;49.416;8.690;2022-07-03T01:13:14;100546.42;;;26.73;43.76
43281;BME280;36240;49.416;8.690;2022-07-03T01:15:50;100549.60;;;26.96;44.22
43281;BME280;36240;49.416;8.690;2022-07-03T01:18:29;100548.72;;;26.92;44.07
43281;BME280;36240;49.416;8.690;2022-07-03T01:21:04;100547.76;;;26.88;43.89
43281;BME280;36240;49.416;8.690;2022-07-03T01:23:49;100549.93;;;27.13;43.90
43281;BME280;36240;49.416;8.690;2022-07-03T01:26:24;100552.17;;;26.82;43.85
43281;BME280;36240;49.416;8.690;2022-07-03T01:28:55;100548.44;;;26.84;44.09
43281;BME280;36240;49.416;8.690;2022-07-03T01:31:26;100551.45;;;26.78;44.05
43281;BME280;36240;49.416;8.690;2022-07-03T01:33:54;100548.93;;;26.80;44.07
43281;BME280;36240;49.416;8.690;2022-07-03T01:36:22;100549.93;;;26.74;44.45
43281;BME280;36240;49.416;8.690;2022-07-03T01:38:51;100550.12;;;26.75;44.05
43281;BME280;36240;49.416;8.690;2022-07-03T01:41:20;100543.56;;;26.77;44.08
43281;BME280;36240;49.416;8.690;2022-07-03T01:43:50;100545.13;;;26.74;44.12
43281;BME280;36240;49.416;8.690;2022-07-03T01:46:21;100541.42;;;26.73;44.56
43281;BME280;36240;49.416;8.690;2022-07-03T01:48:54;100540.66;;;26.69;44.19
43281;BME280;36240;49.416;8.690;2022-07-03T01:51:22;100541.86;;;26.69;43.90
43281;BME280;36240;49.416;8.690;2022-07-03T01:53:51;100538.51;;;26.70;43.94
43281;BME280;36240;49.416;8.690;2022-07-03T01:56:20;100530.77;;;26.75;44.15
43281;BME280;36240;49.416;8.690;2022-07-03T01:58:48;100524.26;;;26.88;44.36
43281;BME280;36240;49.416;8.690;2022-07-03T02:01:19;100523.76;;;26.64;44.63
43281;BME280;36240;49.416;8.690;2022-07-03T02:03:54;100515.33;;;26.71;44.16
43281;BME280;36240;49.416;8.690;2022-07-03T02:06:35;100517.25;;;26.72;43.89
43281;BME280;36240;49.416;8.690;2022-07-03T02:09:08;100516.30;;;26.74;44.37
43281;BME280;36240;49.416;8.690;2022-07-03T02:11:39;100516.18;;;26.75;44.03
43281;BME280;36240;49.416;8.690;2022-07-03T02:14:12;100522.07;;;26.72;43.77
43281;BME280;36240;49.416;8.690;2022-07-03T02:16:49;100520.37;;;26.77;43.90
43281;BME280;36240;49.416;8.690;2022-07-03T02:19:18;100517.51;;;26.82;43.71
43281;BME280;36240;49.416;8.690;2022-07-03T02:21:48;100516.91;;;26.85;44.14
43281;BME280;36240;49.416;8.690;2022-07-03T02:24:19;100524.41;;;26.82;44.01
43281;BME280;36240;49.416;8.690;2022-07-03T02:26:53;100527.45;;;26.75;44.06
43281;BME280;36240;49.416;8.690;2022-07-03T02:29:30;100531.84;;;26.76;43.94
43281;BME280;36240;49.416;8.690;2022-07-03T02:32:00;100529.76;;;26.69;43.83
43281;BME280;36240;49.416;8.690;2022-07-03T02:34:30;100533.33;;;27.01;44.02
43281;BME280;36240;49.416;8.690;2022-07-03T02:37:06;100543.20;;;26.71;43.84
43281;BME280;36240;49.416;8.690;2022-07-03T02:39:43;100548.11;;;26.93;43.69
43281;BME280;36240;49.416;8.690;2022-07-03T02:42:19;100549.30;;;26.63;43.57
43281;BME280;36240;49.416;8.690;2022-07-03T02:44:51;100552.91;;;26.70;43.80
43281;BME280;36240;49.416;8.690;2022-07-03T02:47:25;100548.50;;;26.63;43.78
43281;BME280;36240;49.416;8.690;2022-07-03T02:50:03;100556.36;;;26.61;43.65
43281;BME280;36240;49.416;8.690;2022-07-03T02:52:36;100558.24;;;26.66;43.46
43281;BME280;36240;49.416;8.690;2022-07-03T02:57:59;100554.88;;;26.82;43.57
43281;BME280;36240;49.416;8.690;2022-07-03T03:00:34;100555.76;;;26.80;43.50
43281;BME280;36240;49.416;8.690;2022-07-03T03:03:02;100556.44;;;26.83;43.50
43281;BME280;36240;49.416;8.690;2022-07-03T03:05:37;100561.36;;;27.04;43.54
43281;BME280;36240;49.416;8.690;2022-07-03T03:08:12;100562.03;;;26.81;43.56
43281;BME280;36240;49.416;8.690;2022-07-03T03:10:43;100560.34;;;26.47;43.54
43281;BME280;36240;49.416;8.690;2022-07-03T03:13:13;100569.76;;;26.77;43.58
43281;BME280;36240;49.416;8.690;2022-07-03T03:15:47;100576.59;;;26.79;43.36
43281;BME280;36240;49.416;8.690;2022-07-03T03:18:22;100582.17;;;26.49;43.35
43281;BME280;36240;49.416;8.690;2022-07-03T03:20:58;100578.40;;;26.42;43.57
43281;BME280;36240;49.416;8.690;2022-07-03T03:23:35;100569.70;;;26.71;43.71
43281;BME280;36240;49.416;8.690;2022-07-03T03:26:05;100584.47;;;26.39;43.63
43281;BME280;36240;49.416;8.690;2022-07-03T03:28:33;100588.03;;;26.48;43.53
43281;BME280;36240;49.416;8.690;2022-07-03T03:31:01;100590.78;;;26.51;43.22
43281;BME280;36240;49.416;8.690;2022-07-03T03:33:28;100591.55;;;26.46;43.37
43281;BME280;36240;49.416;8.690;2022-07-03T03:35:57;100594.10;;;26.67;43.32
43281;BME280;36240;49.416;8.690;2022-07-03T03:38:25;100596.77;;;26.44;43.27
43281;BME280;36240;49.416;8.690;2022-07-03T03:40:53;100603.02;;;26.39;43.29
43281;BME280;36240;49.416;8.690;2022-07-03T03:43:20;100610.36;;;26.29;43.72
43281;BME280;36240;49.416;8.690;2022-07-03T03:45:47;100606.99;;;26.32;43.58
43281;BME280;36240;49.416;8.690;2022-07-03T03:48:14;100614.47;;;26.36;43.55
43281;BME280;36240;49.416;8.690;2022-07-03T03:50:41;100617.60;;;26.31;43.68
43281;BME280;36240;49.416;8.690;2022-07-03T03:53:09;100616.13;;;26.56;43.64
43281;BME280;36240;49.416;8.690;2022-07-03T03:55:37;100621.84;;;26.59;43.76
43281;BME280;36240;49.416;8.690;2022-07-03T03:58:04;100625.06;;;26.59;43.53
43281;BME280;36240;49.416;8.690;2022-07-03T04:00:32;100620.91;;;26.52;43.73
43281;BME280;36240;49.416;8.690;2022-07-03T04:02:59;100623.24;;;26.53;43.73
43281;BME280;36240;49.416;8.690;2022-07-03T04:05:26;100627.02;;;26.53;43.86
43281;BME280;36240;49.416;8.690;2022-07-03T04:07:52;100625.91;;;26.75;43.72
43281;BME280;36240;49.416;8.690;2022-07-03T04:10:19;100624.03;;;26.17;43.72
43281;BME280;36240;49.416;8.690;2022-07-03T04:12:46;100625.34;;;26.22;43.77
43281;BME280;36240;49.416;8.690;2022-07-03T04:15:13;100624.08;;;26.25;43.84
43281;BME280;36240;49.416;8.690;2022-07-03T04:17:40;100625.67;;;26.45;44.08
43281;BME280;36240;49.416;8.690;2022-07-03T04:20:08;100626.86;;;26.51;44.20
43281;BME280;36240;49.416;8.690;2022-07-03T04:22:35;100624.88;;;26.20;43.99
43281;BME280;36240;49.416;8.690;2022-07-03T04:25:03;100627.22;;;26.14;44.13
43281;BME280;36240;49.416;8.690;2022-07-03T04:27:30;100627.09;;;26.46;44.14
43281;BME280;36240;49.416;8.690;2022-07-03T04:29:57;100627.27;;;26.08;44.33
43281;BME280;36240;49.416;8.690;2022-07-03T04:32:24;100624.81;;;26.39;44.27
43281;BME280;36240;49.416;8.690;2022-07-03T04:34:52;100625.31;;;26.36;44.42
43281;BME280;36240;49.416;8.690;2022-07-03T04:37:19;100628.25;;;26.30;44.43
43281;BME280;36240;49.416;8.690;2022-07-03T04:39:45;100626.76;;;26.11;44.43
43281;BME280;36240;49.416;8.690;2022-07-03T04:42:12;100627.78;;;26.54;44.59
43281;BME280;36240;49.416;8.690;2022-07-03T04:44:39;100627.92;;;26.05;44.42
43281;BME280;36240;49.416;8.690;2022-07-03T04:47:07;100633.82;;;26.31;44.57
43281;BME280;36240;49.416;8.690;2022-07-03T04:49:34;100635.70;;;26.20;44.43
43281;BME280;36240;49.416;8.690;2022-07-03T04:52:00;100640.76;;;26.22;44.30
43281;BME280;36240;49.416;8.690;2022-07-03T04:54:28;100643.70;;;26.45;44.46
43281;BME280;36240;49.416;8.690;2022-07-03T04:56:55;100645.97;;;26.15;44.85
43281;BME280;36240;49.416;8.690;2022-07-03T04:59:22;100647.97;;;26.39;44.80
43281;BME280;36240;49.416;8.690;2022-07-03T05:01:49;100644.78;;;26.22;44.91
43281;BME280;36240;49.416;8.690;2022-07-03T05:04:16;100645.85;;;26.16;44.49
43281;BME280;36240;49.416;8.690;2022-07-03T05:06:45;100641.43;;;26.16;44.76
43281;BME280;36240;49.416;8.690;2022-07-03T05:09:13;100644.23;;;26.36;44.96
43281;BME280;36240;49.416;8.690;2022-07-03T05:11:41;100640.57;;;26.16;44.65
43281;BME280;36240;49.416;8.690;2022-07-03T05:14:08;100641.29;;;26.44;44.65
43281;BME280;36240;49.416;8.690;2022-07-03T05:16:35;100636.67;;;26.35;44.86
43281;BME280;36240;49.416;8.690;2022-07-03T05:19:02;100638.15;;;26.20;44.73
43281;BME280;36240;49.416;8.690;2022-07-03T05:21:29;100638.26;;;26.42;45.08
43281;BME280;36240;49.416;8.690;2022-07-03T05:23:57;100641.76;;;26.29;44.86
43281;BME280;36240;49.416;8.690;2022-07-03T05:26:24;100642.30;;;26.27;44.87
43281;BME280;36240;49.416;8.690;2022-07-03T05:28:51;100640.54;;;26.14;44.76
43281;BME280;36240;49.416;8.690;2022-07-03T05:31:17;100641.17;;;26.12;44.71
43281;BME280;36240;49.416;8.690;2022-07-03T05:33:44;100639.81;;;25.92;45.04
43281;BME280;36240;49.416;8.690;2022-07-03T05:36:11;100645.34;;;26.17;45.05
43281;BME280;36240;49.416;8.690;2022-07-03T05:38:38;100646.18;;;26.44;44.90
43281;BME280;36240;49.416;8.690;2022-07-03T05:41:05;100648.40;;;25.86;45.48
43281;BME280;36240;49.416;8.690;2022-07-03T05:43:32;100654.20;;;26.12;45.08
43281;BME280;36240;49.416;8.690;2022-07-03T05:45:59;100651.99;;;26.09;44.74
43281;BME280;36240;49.416;8.690;2022-07-03T05:48:26;100650.20;;;26.30;44.75
43281;BME280;36240;49.416;8.690;2022-07-03T05:50:54;100651.26;;;26.04;45.38
43281;BME280;36240;49.416;8.690;2022-07-03T05:53:21;100655.64;;;26.02;45.03
43281;BME280;36240;49.416;8.690;2022-07-03T05:55:49;100661.74;;;26.03;45.21
43281;BME280;36240;49.416;8.690;2022-07-03T05:58:16;100658.88;;;26.40;45.46
43281;BME280;36240;49.416;8.690;2022-07-03T06:00:44;100660.86;;;26.35;45.51
43281;BME280;36240;49.416;8.690;2022-07-03T06:03:12;100659.16;;;26.19;45.58
43281;BME280;36240;49.416;8.690;2022-07-03T06:05:39;100657.63;;;26.12;45.65
43281;BME280;36240;49.416;8.690;2022-07-03T06:08:06;100661.06;;;26.31;45.86
43281;BME280;36240;49.416;8.690;2022-07-03T06:10:34;100663.03;;;26.11;46.10
43281;BME280;36240;49.416;8.690;2022-07-03T06:13:02;100660.69;;;26.35;45.34
43281;BME280;36240;49.416;8.690;2022-07-03T06:15:29;100660.65;;;26.18;45.41
43281;BME280;36240;49.416;8.690;2022-07-03T06:17:56;100663.23;;;26.19;45.43
43281;BME280;36240;49.416;8.690;2022-07-03T06:20:23;100663.60;;;26.27;45.62
43281;BME280;36240;49.416;8.690;2022-07-03T06:22:49;100662.81;;;26.30;45.94
43281;BME280;36240;49.416;8.690;2022-07-03T06:25:17;100663.82;;;26.48;45.93
43281;BME280;36240;49.416;8.690;2022-07-03T06:27:44;100662.97;;;26.18;45.40
43281;BME280;36240;49.416;8.690;2022-07-03T06:30:12;100665.02;;;26.31;45.87
43281;BME280;36240;49.416;8.690;2022-07-03T06:32:39;100664.81;;;26.52;45.37
43281;BME280;36240;49.416;8.690;2022-07-03T06:35:07;100666.58;;;26.40;46.33
43281;BME280;36240;49.416;8.690;2022-07-03T06:37:34;100666.90;;;26.18;45.92
43281;BME280;36240;49.416;8.690;2022-07-03T06:40:01;100665.81;;;26.16;45.62
43281;BME280;36240;49.416;8.690;2022-07-03T06:42:28;100666.74;;;26.36;45.72
43281;BME280;36240;49.416;8.690;2022-07-03T06:44:54;100669.02;;;26.62;46.11
43281;BME280;36240;49.416;8.690;2022-07-03T06:47:21;100670.05;;;26.53;45.62
43281;BME280;36240;49.416;8.690;2022-07-03T06:49:48;100668.28;;;26.52;46.56
43281;BME280;36240;49.416;8.690;2022-07-03T06:52:15;100670.73;;;26.47;46.30
43281;BME280;36240;49.416;8.690;2022-07-03T06:54:42;100672.68;;;26.33;46.43
43281;BME280;36240;49.416;8.690;2022-07-03T06:57:09;100671.34;;;26.57;46.88
43281;BME280;36240;49.416;8.690;2022-07-03T06:59:37;100671.46;;;26.26;46.60
43281;BME280;36240;49.416;8.690;2022-07-03T07:02:04;100671.89;;;26.29;46.46
43281;BME280;36240;49.416;8.690;2022-07-03T07:04:31;100670.82;;;26.22;46.24
43281;BME280;36240;49.416;8.690;2022-07-03T07:06:58;100673.82;;;26.52;46.33
43281;BME280;36240;49.416;8.690;2022-07-03T07:09:25;100668.27;;;26.58;46.19
43281;BME280;36240;49.416;8.690;2022-07-03T07:11:53;100666.84;;;26.68;45.70
43281;BME280;36240;49.416;8.690;2022-07-03T07:14:19;100668.95;;;26.40;45.58
43281;BME280;36240;49.416;8.690;2022-07-03T07:16:46;100671.95;;;26.50;45.92
43281;BME280;36240;49.416;8.690;2022-07-03T07:19:13;100672.42;;;26.43;46.14
43281;BME280;36240;49.416;8.690;2022-07-03T07:21:40;100674.82;;;26.15;46.73
43281;BME280;36240;49.416;8.690;2022-07-03T07:24:07;100670.60;;;26.45;45.99
43281;BME280;36240;49.416;8.690;2022-07-03T07:26:34;100672.63;;;26.44;46.15
43281;BME280;36240;49.416;8.690;2022-07-03T07:29:01;100671.33;;;26.58;46.69
43281;BME280;36240;49.416;8.690;2022-07-03T07:31:28;100673.62;;;26.49;46.05
43281;BME280;36240;49.416;8.690;2022-07-03T07:33:55;100671.20;;;26.43;46.16
43281;BME280;36240;49.416;8.690;2022-07-03T07:36:22;100665.79;;;26.16;46.46
43281;BME280;36240;49.416;8.690;2022-07-03T07:38:48;100669.47;;;26.11;46.32
43281;BME280;36240;49.416;8.690;2022-07-03T07:41:16;100666.30;;;26.15;45.72
43281;BME280;36240;49.416;8.690;2022-07-03T07:43:43;100664.10;;;26.40;46.21
43281;BME280;36240;49.416;8.690;2022-07-03T07:46:10;100662.72;;;26.21;46.30
43281;BME280;36240;49.416;8.690;2022-07-03T07:48:37;100659.13;;;26.31;45.74
43281;BME280;36240;49.416;8.690;2022-07-03T07:51:03;100656.30;;;26.61;45.74
43281;BME280;36240;49.416;8.690;2022-07-03T07:53:30;100658.62;;;26.33;46.13
43281;BME280;36240;49.416;8.690;2022-07-03T07:55:57;100660.61;;;26.51;45.92
43281;BME280;36240;49.416;8.690;2022-07-03T07:58:25;100660.19;;;26.26;46.20
43281;BME280;36240;49.416;8.690;2022-07-03T08:00:52;100659.47;;;25.94;46.27
43281;BME280;36240;49.416;8.690;2022-07-03T08:03:18;100661.26;;;26.47;46.38
43281;BME280;36240;49.416;8.690;2022-07-03T08:05:45;100659.93;;;26.27;46.52
43281;BME280;36240;49.416;8.690;2022-07-03T08:08:14;100658.42;;;26.25;46.21
43281;BME280;36240;49.416;8.690;2022-07-03T08:10:44;100657.28;;;25.88;46.29
43281;BME280;36240;49.416;8.690;2022-07-03T08:13:12;100655.06;;;26.19;46.19
43281;BME280;36240;49.416;8.690;2022-07-03T08:15:40;100657.27;;;25.96;46.12
43281;BME280;36240;49.416;8.690;2022-07-03T08:18:09;100655.63;;;26.13;46.22
43281;BME280;36240;49.416;8.690;2022-07-03T08:20:37;100653.77;;;26.14;46.18
43281;BME280;36240;49.416;8.690;2022-07-03T08:23:04;100655.75;;;26.33;46.30
43281;BME280;36240;49.416;8.690;2022-07-03T08:25:32;100656.38;;;26.62;45.91
43281;BME280;36240;49.416;8.690;2022-07-03T08:27:59;100656.65;;;26.52;45.70
43281;BME280;36240;49.416;8.690;2022-07-03T08:30:27;100654.33;;;26.10;45.98
43281;BME280;36240;49.416;8.690;2022-07-03T08:32:57;100652.32;;;26.62;45.82
43281;BME280;36240;49.416;8.690;2022-07-03T08:35:24;100655.35;;;26.74;45.64
43281;BME280;36240;49.416;8.690;2022-07-03T08:37:52;100649.87;;;26.55;45.53
43281;BME280;36240;49.416;8.690;2022-07-03T08:40:20;100651.51;;;26.81;45.06
43281;BME280;36240;49.416;8.690;2022-07-03T08:42:50;100651.69;;;26.88;44.85
43281;BME280;36240;49.416;8.690;2022-07-03T08:45:20;100648.40;;;26.96;44.88
43281;BME280;36240;49.416;8.690;2022-07-03T08:47:48;100644.52;;;26.71;45.14
43281;BME280;36240;49.416;8.690;2022-07-03T08:50:17;100645.55;;;26.54;44.88
43281;BME280;36240;49.416;8.690;2022-07-03T08:52:47;100638.21;;;26.83;44.66
43281;BME280;36240;49.416;8.690;2022-07-03T08:55:16;100638.91;;;27.01;44.36
43281;BME280;36240;49.416;8.690;2022-07-03T08:57:45;100637.43;;;27.03;44.45
43281;BME280;36240;49.416;8.690;2022-07-03T09:00:15;100644.25;;;27.27;44.53
43281;BME280;36240;49.416;8.690;2022-07-03T09:02:44;100642.39;;;27.06;44.47
43281;BME280;36240;49.416;8.690;2022-07-03T09:05:13;100637.81;;;27.05;44.37
43281;BME280;36240;49.416;8.690;2022-07-03T09:07:42;100636.11;;;27.09;44.27
43281;BME280;36240;49.416;8.690;2022-07-03T09:10:12;100636.58;;;27.21;44.08
43281;BME280;36240;49.416;8.690;2022-07-03T09:12:39;100635.70;;;27.59;44.04
43281;BME280;36240;49.416;8.690;2022-07-03T09:15:08;100637.49;;;27.48;43.85
43281;BME280;36240;49.416;8.690;2022-07-03T09:17:36;100632.80;;;27.24;43.78
43281;BME280;36240;49.416;8.690;2022-07-03T09:20:05;100639.34;;;27.43;43.66
43281;BME280;36240;49.416;8.690;2022-07-03T09:22:34;100629.68;;;27.59;43.36
43281;BME280;36240;49.416;8.690;2022-07-03T09:25:05;100628.96;;;27.62;43.38
43281;BME280;36240;49.416;8.690;2022-07-03T09:27:33;100631.11;;;27.27;43.40
43281;BME280;36240;49.416;8.690;2022-07-03T09:30:01;100631.46;;;27.61;43.18
43281;BME280;36240;49.416;8.690;2022-07-03T09:32:39;100628.98;;;27.49;43.09
43281;BME280;36240;49.416;8.690;2022-07-03T09:35:24;100631.34;;;27.72;42.75
43281;BME280;36240;49.416;8.690;2022-07-03T09:37:53;100632.54;;;27.73;42.67
43281;BME280;36240;49.416;8.690;2022-07-03T09:40:22;100634.63;;;27.49;42.29
43281;BME280;36240;49.416;8.690;2022-07-03T09:43:06;100635.60;;;27.66;42.38
43281;BME280;36240;49.416;8.690;2022-07-03T09:45:52;100633.60;;;27.56;41.96
43281;BME280;36240;49.416;8.690;2022-07-03T09:48:22;100625.85;;;27.70;42.09
43281;BME280;36240;49.416;8.690;2022-07-03T09:51:08;100624.23;;;27.78;41.96
43281;BME280;36240;49.416;8.690;2022-07-03T09:53:45;100631.00;;;28.05;41.79
43281;BME280;36240;49.416;8.690;2022-07-03T09:56:13;100626.48;;;27.66;41.58
43281;BME280;36240;49.416;8.690;2022-07-03T09:58:40;100627.41;;;27.72;41.62
43281;BME280;36240;49.416;8.690;2022-07-03T10:01:22;100627.37;;;27.83;41.63
43281;BME280;36240;49.416;8.690;2022-07-03T10:03:49;100628.63;;;28.19;41.15
43281;BME280;36240;49.416;8.690;2022-07-03T10:06:16;100624.02;;;27.86;40.96
43281;BME280;36240;49.416;8.690;2022-07-03T10:08:42;100622.66;;;28.04;41.34
43281;BME280;36240;49.416;8.690;2022-07-03T10:11:10;100617.00;;;27.95;40.94
43281;BME280;36240;49.416;8.690;2022-07-03T10:13:38;100616.19;;;28.22;41.19
43281;BME280;36240;49.416;8.690;2022-07-03T10:16:07;100614.85;;;27.79;41.17
43281;BME280;36240;49.416;8.690;2022-07-03T10:18:36;100621.50;;;28.09;41.20
43281;BME280;36240;49.416;8.690;2022-07-03T10:21:06;100617.80;;;27.99;41.41
43281;BME280;36240;49.416;8.690;2022-07-03T10:23:34;100615.35;;;27.92;41.72
43281;BME280;36240;49.416;8.690;2022-07-03T10:26:01;100614.44;;;27.58;42.13
43281;BME280;36240;49.416;8.690;2022-07-03T10:28:30;100612.75;;;27.51;41.75
43281;BME280;36240;49.416;8.690;2022-07-03T10:30:59;100607.53;;;27.21;42.04
43281;BME280;36240;49.416;8.690;2022-07-03T10:33:27;100608.23;;;27.43;41.83
43281;BME280;36240;49.416;8.690;2022-07-03T10:35:55;100608.08;;;27.72;41.52
43281;BME280;36240;49.416;8.690;2022-07-03T10:38:35;100604.90;;;27.31;41.55
43281;BME280;36240;49.416;8.690;2022-07-03T10:41:07;100601.22;;;27.49;41.62
43281;BME280;36240;49.416;8.690;2022-07-03T10:43:39;100606.05;;;27.41;41.35
43281;BME280;36240;49.416;8.690;2022-07-03T10:46:11;100608.87;;;27.78;41.45
43281;BME280;36240;49.416;8.690;2022-07-03T10:49:11;100615.00;;;27.48;40.90
43281;BME280;36240;49.416;8.690;2022-07-03T10:51:52;100611.44;;;27.76;40.99
43281;BME280;36240;49.416;8.690;2022-07-03T10:54:21;100620.69;;;27.26;40.38
43281;BME280;36240;49.416;8.690;2022-07-03T10:57:21;100612.51;;;27.32;40.93
43281;BME280;36240;49.416;8.690;2022-07-03T11:00:04;100614.34;;;27.19;40.38
43281;BME280;36240;49.416;8.690;2022-07-03T11:02:34;100604.35;;;27.52;40.30
43281;BME280;36240;49.416;8.690;2022-07-03T11:05:12;100603.26;;;27.19;40.50
43281;BME280;36240;49.416;8.690;2022-07-03T11:07:50;100601.86;;;27.16;40.56
43281;BME280;36240;49.416;8.690;2022-07-03T11:10:30;100601.27;;;27.37;40.32
43281;BME280;36240;49.416;8.690;2022-07-03T11:12:58;100593.71;;;27.49;39.72
43281;BME280;36240;49.416;8.690;2022-07-03T11:15:27;100591.44;;;27.22;39.94
43281;BME280;36240;49.416;8.690;2022-07-03T11:18:18;100588.50;;;27.42;39.93
43281;BME280;36240;49.416;8.690;2022-07-03T11:21:16;100584.95;;;27.00;39.98
43281;BME280;36240;49.416;8.690;2022-07-03T11:24:33;100581.92;;;27.12;40.13
43281;BME280;36240;49.416;8.690;2022-07-03T11:27:21;100576.65;;;27.13;39.86
43281;BME280;36240;49.416;8.690;2022-07-03T11:29:52;100575.76;;;27.42;39.43
43281;BME280;36240;49.416;8.690;2022-07-03T11:32:52;100570.54;;;27.33;40.19
43281;BME280;36240;49.416;8.690;2022-07-03T11:35:53;100573.07;;;27.29;40.29
43281;BME280;36240;49.416;8.690;2022-07-03T11:38:27;100567.87;;;27.20;40.40
43281;BME280;36240;49.416;8.690;2022-07-03T11:40:56;100560.67;;;26.96;40.13
43281;BME280;36240;49.416;8.690;2022-07-03T11:43:23;100555.70;;;27.18;40.38
43281;BME280;36240;49.416;8.690;2022-07-03T11:45:51;100552.22;;;27.28;39.99
43281;BME280;36240;49.416;8.690;2022-07-03T11:48:20;100550.08;;;26.92;39.98
43281;BME280;36240;49.416;8.690;2022-07-03T11:50:48;100550.42;;;27.11;40.18
43281;BME280;36240;49.416;8.690;2022-07-03T11:53:20;100551.96;;;26.84;39.95
43281;BME280;36240;49.416;8.690;2022-07-03T11:55:49;100549.39;;;27.20;39.64
43281;BME280;36240;49.416;8.690;2022-07-03T11:58:16;100541.29;;;26.86;40.02
43281;BME280;36240;49.416;8.690;2022-07-03T12:00:44;100541.57;;;26.92;39.41
43281;BME280;36240;49.416;8.690;2022-07-03T12:03:17;100552.57;;;27.39;39.14
43281;BME280;36240;49.416;8.690;2022-07-03T12:05:52;100541.18;;;26.83;39.76
43281;BME280;36240;49.416;8.690;2022-07-03T12:08:24;100542.27;;;27.41;39.18
43281;BME280;36240;49.416;8.690;2022-07-03T12:10:58;100537.89;;;26.69;39.77
43281;BME280;36240;49.416;8.690;2022-07-03T12:13:26;100536.37;;;26.94;39.40
43281;BME280;36240;49.416;8.690;2022-07-03T12:15:53;100538.97;;;27.47;39.20
43281;BME280;36240;49.416;8.690;2022-07-03T12:18:21;100543.90;;;26.97;39.27
43281;BME280;36240;49.416;8.690;2022-07-03T12:20:48;100546.29;;;27.23;39.94
43281;BME280;36240;49.416;8.690;2022-07-03T12:23:14;100549.26;;;27.19;39.25
43281;BME280;36240;49.416;8.690;2022-07-03T12:25:42;100553.83;;;27.51;38.58
43281;BME280;36240;49.416;8.690;2022-07-03T12:28:09;100542.38;;;27.64;38.40
43281;BME280;36240;49.416;8.690;2022-07-03T12:30:38;100541.47;;;27.45;38.49
43281;BME280;36240;49.416;8.690;2022-07-03T12:33:06;100531.73;;;27.24;38.75
43281;BME280;36240;49.416;8.690;2022-07-03T12:35:34;100528.86;;;26.94;38.98
43281;BME280;36240;49.416;8.690;2022-07-03T12:38:01;100533.89;;;27.19;39.01
43281;BME280;36240;49.416;8.690;2022-07-03T12:40:28;100534.23;;;27.31;37.90
43281;BME280;36240;49.416;8.690;2022-07-03T12:42:56;100530.88;;;27.24;37.98
43281;BME280;36240;49.416;8.690;2022-07-03T12:45:25;100524.44;;;27.41;38.23
43281;BME280;36240;49.416;8.690;2022-07-03T12:48:00;100525.14;;;27.44;38.37
43281;BME280;36240;49.416;8.690;2022-07-03T12:50:43;100515.10;;;27.14;38.49
43281;BME280;36240;49.416;8.690;2022-07-03T12:53:11;100521.86;;;27.92;37.75
43281;BME280;36240;49.416;8.690;2022-07-03T12:55:52;100514.10;;;27.33;38.34
43281;BME280;36240;49.416;8.690;2022-07-03T12:58:23;100510.13;;;27.50;38.44
43281;BME280;36240;49.416;8.690;2022-07-03T13:00:50;100503.00;;;27.21;38.41
43281;BME280;36240;49.416;8.690;2022-07-03T13:03:36;100500.42;;;27.54;38.25
43281;BME280;36240;49.416;8.690;2022-07-03T13:06:12;100498.70;;;27.43;38.67
43281;BME280;36240;49.416;8.690;2022-07-03T13:08:39;100500.56;;;27.71;38.36